Farmers, Nebraska
Current Conditions -  °F | °C
As of 8:35 AM on Thursday 27 Nov 2014 (Local Time) from KHDE Reporting Station
Clear Clear  
Wind Chill:   Ceiling: Unl
Heat Index: 20°   Visibility: 10mi
Dew Point: 17°   Wind: 10mph
Humidity: 87%   Direction: 150°SSE
Pressure: 30.36"   Gusts: NA
Location:  40.1338°N, 99.0101°W
Report Text: KHDE 271435Z AUTO 15009KT 10SM CLR M07/M08 A3036 RMK AO2 T10661085
Loading
Personal Weather Stations






























Interactive Weather Map New forecast layout! Learn more

10-Day Weather Forecast

Advertisements
Track Severe Weather on mobile